Aeroporto :
LOGIN :

Iscrizione | Disclaimer

   EN    FR    IT 

 










Sommario :    VFR   VFR Marginale   IFR   IFR Intensivo   IFR Molto Intensivo
Visibilità : 
Base nubi : 
>= 8 km
>= 3000ft
5 / 8 km
1000 / 3000 ft
1500m / 5 km
500 / 1000 ft
800 / 1500m
200 / 500 ft
< 800m
< 200 ft
Simboli :   Temporali  Nebbia  Neve Forte  Precipitazioni Forti  Vento > 20 kt
SIGMETs :   Varie  Temporali  Ghiacco  Turbolenza  Onda orograficha  Ceneri Vulcaniche






- Altitudine del aeroporto : 288 ft
- Codice IATA : BZZ


EGVN - RAF Brize Norton

ULTIMO METAR :
  • 170320Z 22001KT CAVOK 08/07 Q1007 NOSIG RMK BLU BLU

METARs OBSOLETI :
  • 170250Z 28002KT CAVOK 09/07 Q1007 NOSIG RMK BLU BLU
  • 170220Z 23002KT CAVOK 09/07 Q1007 NOSIG RMK BLU BLU
  • 170150Z 26001KT CAVOK 09/07 Q1007 NOSIG RMK BLU BLU
  • 170120Z AUTO 28001KT 9999 NCD 09/07 Q1006
  • 170050Z 24003KT CAVOK 10/07 Q1006 NOSIG RMK BLU BLU
  • 170020Z 23003KT CAVOK 10/07 Q1006 NOSIG RMK BLU BLU
  • 162350Z 23002KT CAVOK 10/07 Q1006 NOSIG RMK BLU BLU
  • 162320Z 24002KT CAVOK 11/07 Q1006 NOSIG RMK BLU BLU
  • 162250Z 21003KT CAVOK 11/07 Q1006 NOSIG

TAF TAF EGVN
Valido dal 17 a 03 ore il 18 a 03 ore UTC


170156Z 1703/1803 23005KT CAVOK
PROB30 1703/1707 7000 HZ
PROB30
TEMPO 1705/1708 SCT010



MetMap, La meteo Aeronautica in un colpo d'occhio ! - Copyright ORBIFLY Dicembre 2007 - Disclaimer

ORBIFLY MET'MAP TEAM :

Programmazione e sviluppo : Alexandra Zaïnal
Concezione : Baudouin d'Aumeries
Supporto tecnico e logistico : Manuel Goepfert
Aiuto : Marc-Olivier Méhu
Aiuto per la traduzione : Arnaldo La Scala




FONTI E CREDITI :

   NOAA